sensor_id;sensor_type;location;lat;lon;timestamp;P1;durP1;ratioP1;P2;durP2;ratioP2
17913;SDS011;9082;50.742;8.238;2022-07-09T00:01:47;9.00;;;3.67;;
17913;SDS011;9082;50.742;8.238;2022-07-09T00:04:17;7.60;;;3.70;;
17913;SDS011;9082;50.742;8.238;2022-07-09T00:06:46;5.67;;;3.67;;
17913;SDS011;9082;50.742;8.238;2022-07-09T00:09:14;7.03;;;3.27;;
17913;SDS011;9082;50.742;8.238;2022-07-09T00:11:41;8.33;;;3.40;;
17913;SDS011;9082;50.742;8.238;2022-07-09T00:14:09;9.47;;;3.40;;
17913;SDS011;9082;50.742;8.238;2022-07-09T00:16:38;4.20;;;2.97;;
17913;SDS011;9082;50.742;8.238;2022-07-09T00:19:06;5.07;;;3.40;;
17913;SDS011;9082;50.742;8.238;2022-07-09T00:21:37;7.23;;;3.33;;
17913;SDS011;9082;50.742;8.238;2022-07-09T00:24:10;10.87;;;3.23;;
17913;SDS011;9082;50.742;8.238;2022-07-09T00:26:40;8.63;;;3.50;;
17913;SDS011;9082;50.742;8.238;2022-07-09T00:29:07;5.37;;;2.83;;
17913;SDS011;9082;50.742;8.238;2022-07-09T00:31:36;5.43;;;3.33;;
17913;SDS011;9082;50.742;8.238;2022-07-09T00:34:06;6.83;;;3.80;;
17913;SDS011;9082;50.742;8.238;2022-07-09T00:36:33;3.83;;;3.13;;
17913;SDS011;9082;50.742;8.238;2022-07-09T00:39:03;6.20;;;3.50;;
17913;SDS011;9082;50.742;8.238;2022-07-09T00:41:34;5.73;;;3.43;;
17913;SDS011;9082;50.742;8.238;2022-07-09T00:44:02;6.00;;;3.27;;
17913;SDS011;9082;50.742;8.238;2022-07-09T00:46:29;5.00;;;3.50;;
17913;SDS011;9082;50.742;8.238;2022-07-09T00:48:56;9.07;;;4.30;;
17913;SDS011;9082;50.742;8.238;2022-07-09T00:51:28;6.80;;;3.77;;
17913;SDS011;9082;50.742;8.238;2022-07-09T00:54:00;6.30;;;3.57;;
17913;SDS011;9082;50.742;8.238;2022-07-09T00:56:30;5.63;;;4.00;;
17913;SDS011;9082;50.742;8.238;2022-07-09T00:58:59;5.37;;;3.90;;
17913;SDS011;9082;50.742;8.238;2022-07-09T01:01:26;7.33;;;4.00;;
17913;SDS011;9082;50.742;8.238;2022-07-09T01:03:54;7.10;;;3.63;;
17913;SDS011;9082;50.742;8.238;2022-07-09T01:06:21;7.17;;;3.73;;
17913;SDS011;9082;50.742;8.238;2022-07-09T01:08:54;4.33;;;3.47;;
17913;SDS011;9082;50.742;8.238;2022-07-09T01:11:24;5.97;;;3.73;;
17913;SDS011;9082;50.742;8.238;2022-07-09T01:13:52;7.40;;;4.30;;
17913;SDS011;9082;50.742;8.238;2022-07-09T01:16:21;6.77;;;4.43;;
17913;SDS011;9082;50.742;8.238;2022-07-09T01:18:48;7.87;;;4.30;;
17913;SDS011;9082;50.742;8.238;2022-07-09T01:21:17;7.73;;;3.90;;
17913;SDS011;9082;50.742;8.238;2022-07-09T01:23:44;5.67;;;3.70;;
17913;SDS011;9082;50.742;8.238;2022-07-09T01:26:12;7.57;;;3.83;;
17913;SDS011;9082;50.742;8.238;2022-07-09T01:28:40;8.60;;;4.00;;
17913;SDS011;9082;50.742;8.238;2022-07-09T01:31:08;8.33;;;4.37;;
17913;SDS011;9082;50.742;8.238;2022-07-09T01:33:35;5.90;;;3.60;;
17913;SDS011;9082;50.742;8.238;2022-07-09T01:36:03;6.07;;;3.70;;
17913;SDS011;9082;50.742;8.238;2022-07-09T01:38:33;8.23;;;4.40;;
17913;SDS011;9082;50.742;8.238;2022-07-09T01:41:00;5.10;;;3.67;;
17913;SDS011;9082;50.742;8.238;2022-07-09T01:43:27;6.27;;;3.97;;
17913;SDS011;9082;50.742;8.238;2022-07-09T01:45:56;7.30;;;3.87;;
17913;SDS011;9082;50.742;8.238;2022-07-09T01:48:25;5.70;;;3.97;;
17913;SDS011;9082;50.742;8.238;2022-07-09T01:50:55;9.60;;;3.50;;
17913;SDS011;9082;50.742;8.238;2022-07-09T01:53:23;8.23;;;3.50;;
17913;SDS011;9082;50.742;8.238;2022-07-09T01:56:03;8.03;;;4.03;;
17913;SDS011;9082;50.742;8.238;2022-07-09T01:58:30;8.57;;;4.20;;
17913;SDS011;9082;50.742;8.238;2022-07-09T02:00:57;5.67;;;3.73;;
17913;SDS011;9082;50.742;8.238;2022-07-09T02:03:24;9.57;;;4.10;;
17913;SDS011;9082;50.742;8.238;2022-07-09T02:05:52;8.33;;;4.47;;
17913;SDS011;9082;50.742;8.238;2022-07-09T02:08:19;6.73;;;3.87;;
17913;SDS011;9082;50.742;8.238;2022-07-09T02:10:47;5.47;;;4.13;;
17913;SDS011;9082;50.742;8.238;2022-07-09T02:13:16;5.90;;;4.07;;
17913;SDS011;9082;50.742;8.238;2022-07-09T02:15:44;6.03;;;3.87;;
17913;SDS011;9082;50.742;8.238;2022-07-09T02:18:12;6.00;;;4.20;;
17913;SDS011;9082;50.742;8.238;2022-07-09T02:20:39;9.33;;;4.03;;
17913;SDS011;9082;50.742;8.238;2022-07-09T02:23:09;6.30;;;4.33;;
17913;SDS011;9082;50.742;8.238;2022-07-09T02:25:36;9.17;;;4.30;;
17913;SDS011;9082;50.742;8.238;2022-07-09T02:28:05;6.77;;;3.70;;
17913;SDS011;9082;50.742;8.238;2022-07-09T02:30:34;7.70;;;4.20;;
17913;SDS011;9082;50.742;8.238;2022-07-09T02:33:02;7.80;;;4.13;;
17913;SDS011;9082;50.742;8.238;2022-07-09T02:35:30;8.87;;;4.17;;
17913;SDS011;9082;50.742;8.238;2022-07-09T02:38:00;6.33;;;4.27;;
17913;SDS011;9082;50.742;8.238;2022-07-09T02:40:28;6.53;;;3.90;;
17913;SDS011;9082;50.742;8.238;2022-07-09T02:42:55;9.60;;;4.40;;
17913;SDS011;9082;50.742;8.238;2022-07-09T02:45:24;6.27;;;4.13;;
17913;SDS011;9082;50.742;8.238;2022-07-09T02:47:53;7.50;;;4.07;;
17913;SDS011;9082;50.742;8.238;2022-07-09T02:50:20;7.70;;;4.13;;
17913;SDS011;9082;50.742;8.238;2022-07-09T02:52:49;5.50;;;4.07;;
17913;SDS011;9082;50.742;8.238;2022-07-09T02:55:17;5.70;;;3.93;;
17913;SDS011;9082;50.742;8.238;2022-07-09T02:57:44;6.27;;;3.83;;
17913;SDS011;9082;50.742;8.238;2022-07-09T03:00:11;7.03;;;4.20;;
17913;SDS011;9082;50.742;8.238;2022-07-09T03:02:39;8.83;;;4.20;;
17913;SDS011;9082;50.742;8.238;2022-07-09T03:05:08;5.63;;;4.13;;
17913;SDS011;9082;50.742;8.238;2022-07-09T03:07:35;6.63;;;4.30;;
17913;SDS011;9082;50.742;8.238;2022-07-09T03:10:02;5.50;;;3.77;;
17913;SDS011;9082;50.742;8.238;2022-07-09T03:12:30;8.03;;;4.40;;
17913;SDS011;9082;50.742;8.238;2022-07-09T03:14:57;6.97;;;3.97;;
17913;SDS011;9082;50.742;8.238;2022-07-09T03:17:24;5.40;;;4.07;;
17913;SDS011;9082;50.742;8.238;2022-07-09T03:19:52;7.57;;;4.37;;
17913;SDS011;9082;50.742;8.238;2022-07-09T03:22:21;6.13;;;4.43;;
17913;SDS011;9082;50.742;8.238;2022-07-09T03:24:50;6.27;;;4.20;;
17913;SDS011;9082;50.742;8.238;2022-07-09T03:27:17;10.63;;;4.20;;
17913;SDS011;9082;50.742;8.238;2022-07-09T03:29:44;8.40;;;4.00;;
17913;SDS011;9082;50.742;8.238;2022-07-09T03:32:12;6.67;;;4.37;;
17913;SDS011;9082;50.742;8.238;2022-07-09T03:34:39;9.27;;;4.47;;
17913;SDS011;9082;50.742;8.238;2022-07-09T03:37:07;5.37;;;3.67;;
17913;SDS011;9082;50.742;8.238;2022-07-09T03:39:37;4.90;;;4.13;;
17913;SDS011;9082;50.742;8.238;2022-07-09T03:42:04;6.53;;;4.03;;
17913;SDS011;9082;50.742;8.238;2022-07-09T03:44:37;5.57;;;4.10;;
17913;SDS011;9082;50.742;8.238;2022-07-09T03:47:08;7.63;;;4.10;;
17913;SDS011;9082;50.742;8.238;2022-07-09T03:49:39;7.60;;;4.40;;
17913;SDS011;9082;50.742;8.238;2022-07-09T03:52:07;6.77;;;3.90;;
17913;SDS011;9082;50.742;8.238;2022-07-09T03:54:35;7.30;;;4.40;;
17913;SDS011;9082;50.742;8.238;2022-07-09T03:57:05;5.77;;;4.03;;
17913;SDS011;9082;50.742;8.238;2022-07-09T03:59:33;5.20;;;4.10;;
17913;SDS011;9082;50.742;8.238;2022-07-09T04:02:01;5.17;;;3.90;;
17913;SDS011;9082;50.742;8.238;2022-07-09T04:04:31;5.13;;;3.57;;
17913;SDS011;9082;50.742;8.238;2022-07-09T04:06:58;5.53;;;3.63;;
17913;SDS011;9082;50.742;8.238;2022-07-09T04:09:26;6.60;;;3.97;;
17913;SDS011;9082;50.742;8.238;2022-07-09T04:11:55;5.73;;;3.90;;
17913;SDS011;9082;50.742;8.238;2022-07-09T04:14:24;6.77;;;4.00;;
17913;SDS011;9082;50.742;8.238;2022-07-09T04:16:56;7.53;;;3.77;;
17913;SDS011;9082;50.742;8.238;2022-07-09T04:19:23;5.37;;;3.63;;
17913;SDS011;9082;50.742;8.238;2022-07-09T04:21:50;7.40;;;3.70;;
17913;SDS011;9082;50.742;8.238;2022-07-09T04:24:18;4.40;;;3.10;;
17913;SDS011;9082;50.742;8.238;2022-07-09T04:26:45;8.20;;;3.47;;
17913;SDS011;9082;50.742;8.238;2022-07-09T04:29:12;4.70;;;2.93;;
17913;SDS011;9082;50.742;8.238;2022-07-09T04:31:41;3.57;;;2.73;;
17913;SDS011;9082;50.742;8.238;2022-07-09T04:34:09;5.80;;;2.87;;
17913;SDS011;9082;50.742;8.238;2022-07-09T04:36:40;3.83;;;2.57;;
17913;SDS011;9082;50.742;8.238;2022-07-09T04:39:11;4.70;;;2.23;;
17913;SDS011;9082;50.742;8.238;2022-07-09T04:41:41;3.50;;;2.33;;
17913;SDS011;9082;50.742;8.238;2022-07-09T04:44:08;3.47;;;2.57;;
17913;SDS011;9082;50.742;8.238;2022-07-09T04:46:42;4.57;;;2.47;;
17913;SDS011;9082;50.742;8.238;2022-07-09T04:49:11;4.63;;;2.17;;
17913;SDS011;9082;50.742;8.238;2022-07-09T04:51:39;3.60;;;2.17;;
17913;SDS011;9082;50.742;8.238;2022-07-09T04:54:09;5.00;;;2.30;;
17913;SDS011;9082;50.742;8.238;2022-07-09T04:56:37;4.70;;;2.40;;
17913;SDS011;9082;50.742;8.238;2022-07-09T04:59:07;3.87;;;2.37;;
17913;SDS011;9082;50.742;8.238;2022-07-09T05:01:38;5.67;;;2.40;;
17913;SDS011;9082;50.742;8.238;2022-07-09T05:04:07;6.50;;;2.07;;
17913;SDS011;9082;50.742;8.238;2022-07-09T05:06:35;4.67;;;2.33;;
17913;SDS011;9082;50.742;8.238;2022-07-09T05:09:02;4.20;;;2.33;;
17913;SDS011;9082;50.742;8.238;2022-07-09T05:11:29;5.70;;;2.40;;
17913;SDS011;9082;50.742;8.238;2022-07-09T05:13:57;3.13;;;2.13;;
17913;SDS011;9082;50.742;8.238;2022-07-09T05:16:24;3.73;;;2.20;;
17913;SDS011;9082;50.742;8.238;2022-07-09T05:18:54;5.63;;;2.27;;
17913;SDS011;9082;50.742;8.238;2022-07-09T05:21:22;6.77;;;2.20;;
17913;SDS011;9082;50.742;8.238;2022-07-09T05:23:51;4.93;;;2.30;;
17913;SDS011;9082;50.742;8.238;2022-07-09T05:26:18;3.83;;;2.70;;
17913;SDS011;9082;50.742;8.238;2022-07-09T05:28:46;2.97;;;2.10;;
17913;SDS011;9082;50.742;8.238;2022-07-09T05:31:13;5.67;;;2.67;;
17913;SDS011;9082;50.742;8.238;2022-07-09T05:33:40;5.87;;;2.70;;
17913;SDS011;9082;50.742;8.238;2022-07-09T05:36:13;4.87;;;2.70;;
17913;SDS011;9082;50.742;8.238;2022-07-09T05:38:42;3.67;;;2.50;;
17913;SDS011;9082;50.742;8.238;2022-07-09T05:41:09;7.50;;;2.67;;
17913;SDS011;9082;50.742;8.238;2022-07-09T05:43:39;4.97;;;3.07;;
17913;SDS011;9082;50.742;8.238;2022-07-09T05:46:06;4.13;;;2.57;;
17913;SDS011;9082;50.742;8.238;2022-07-09T05:48:33;6.23;;;2.97;;
17913;SDS011;9082;50.742;8.238;2022-07-09T05:51:00;6.30;;;3.40;;
17913;SDS011;9082;50.742;8.238;2022-07-09T05:53:28;6.60;;;3.20;;
17913;SDS011;9082;50.742;8.238;2022-07-09T05:55:56;7.63;;;3.33;;
17913;SDS011;9082;50.742;8.238;2022-07-09T05:58:25;9.03;;;3.50;;
17913;SDS011;9082;50.742;8.238;2022-07-09T06:00:52;6.50;;;3.90;;
17913;SDS011;9082;50.742;8.238;2022-07-09T06:03:19;7.67;;;3.63;;
17913;SDS011;9082;50.742;8.238;2022-07-09T06:05:47;5.67;;;3.40;;
17913;SDS011;9082;50.742;8.238;2022-07-09T06:08:15;6.70;;;3.50;;
17913;SDS011;9082;50.742;8.238;2022-07-09T06:10:42;8.60;;;3.97;;
17913;SDS011;9082;50.742;8.238;2022-07-09T06:13:11;8.07;;;3.93;;
17913;SDS011;9082;50.742;8.238;2022-07-09T06:15:38;6.23;;;3.50;;
17913;SDS011;9082;50.742;8.238;2022-07-09T06:18:05;7.87;;;3.70;;
17913;SDS011;9082;50.742;8.238;2022-07-09T06:20:34;10.13;;;4.03;;
17913;SDS011;9082;50.742;8.238;2022-07-09T06:23:01;7.73;;;4.30;;
17913;SDS011;9082;50.742;8.238;2022-07-09T06:25:29;5.77;;;3.57;;
17913;SDS011;9082;50.742;8.238;2022-07-09T06:27:56;7.63;;;4.03;;
17913;SDS011;9082;50.742;8.238;2022-07-09T06:30:28;10.33;;;4.00;;
17913;SDS011;9082;50.742;8.238;2022-07-09T06:32:56;7.33;;;3.60;;
17913;SDS011;9082;50.742;8.238;2022-07-09T06:35:23;6.73;;;3.80;;
17913;SDS011;9082;50.742;8.238;2022-07-09T06:37:50;5.57;;;3.20;;
17913;SDS011;9082;50.742;8.238;2022-07-09T06:40:17;6.87;;;3.30;;
17913;SDS011;9082;50.742;8.238;2022-07-09T06:42:44;8.43;;;3.97;;
17913;SDS011;9082;50.742;8.238;2022-07-09T06:45:12;10.77;;;3.93;;
17913;SDS011;9082;50.742;8.238;2022-07-09T06:47:41;10.57;;;4.37;;
17913;SDS011;9082;50.742;8.238;2022-07-09T06:50:08;8.67;;;4.13;;
17913;SDS011;9082;50.742;8.238;2022-07-09T06:52:35;8.27;;;4.63;;
17913;SDS011;9082;50.742;8.238;2022-07-09T06:55:03;12.43;;;4.87;;
17913;SDS011;9082;50.742;8.238;2022-07-09T06:57:31;8.93;;;4.70;;
17913;SDS011;9082;50.742;8.238;2022-07-09T06:59:59;8.40;;;4.30;;
17913;SDS011;9082;50.742;8.238;2022-07-09T07:02:28;9.90;;;4.77;;
17913;SDS011;9082;50.742;8.238;2022-07-09T07:04:56;13.50;;;5.50;;
17913;SDS011;9082;50.742;8.238;2022-07-09T07:07:25;8.70;;;4.50;;
17913;SDS011;9082;50.742;8.238;2022-07-09T07:09:52;10.13;;;5.07;;
17913;SDS011;9082;50.742;8.238;2022-07-09T07:12:22;12.07;;;5.50;;
17913;SDS011;9082;50.742;8.238;2022-07-09T07:14:49;12.77;;;5.80;;
17913;SDS011;9082;50.742;8.238;2022-07-09T07:17:17;16.50;;;7.70;;
17913;SDS011;9082;50.742;8.238;2022-07-09T07:19:44;16.80;;;7.50;;
17913;SDS011;9082;50.742;8.238;2022-07-09T07:22:15;18.40;;;9.37;;
17913;SDS011;9082;50.742;8.238;2022-07-09T07:27:27;15.90;;;10.20;;
17913;SDS011;9082;50.742;8.238;2022-07-09T07:29:54;19.63;;;8.80;;
17913;SDS011;9082;50.742;8.238;2022-07-09T07:32:24;21.23;;;9.20;;
17913;SDS011;9082;50.742;8.238;2022-07-09T07:34:51;13.83;;;8.13;;
17913;SDS011;9082;50.742;8.238;2022-07-09T07:37:19;16.53;;;8.73;;
17913;SDS011;9082;50.742;8.238;2022-07-09T07:39:46;14.33;;;8.70;;
17913;SDS011;9082;50.742;8.238;2022-07-09T07:42:17;18.60;;;7.60;;
17913;SDS011;9082;50.742;8.238;2022-07-09T07:44:44;19.37;;;8.53;;
17913;SDS011;9082;50.742;8.238;2022-07-09T07:47:11;26.17;;;10.13;;
17913;SDS011;9082;50.742;8.238;2022-07-09T07:49:38;16.27;;;9.53;;
17913;SDS011;9082;50.742;8.238;2022-07-09T07:52:06;16.10;;;9.10;;
17913;SDS011;9082;50.742;8.238;2022-07-09T07:54:42;16.73;;;9.37;;
17913;SDS011;9082;50.742;8.238;2022-07-09T07:57:09;22.73;;;9.70;;
17913;SDS011;9082;50.742;8.238;2022-07-09T07:59:37;17.87;;;10.30;;
17913;SDS011;9082;50.742;8.238;2022-07-09T08:02:04;16.43;;;8.97;;
17913;SDS011;9082;50.742;8.238;2022-07-09T08:04:32;13.80;;;8.13;;
17913;SDS011;9082;50.742;8.238;2022-07-09T08:06:59;13.57;;;7.00;;
17913;SDS011;9082;50.742;8.238;2022-07-09T08:09:26;11.27;;;5.93;;
17913;SDS011;9082;50.742;8.238;2022-07-09T08:11:56;7.73;;;4.53;;
17913;SDS011;9082;50.742;8.238;2022-07-09T08:14:25;8.53;;;4.93;;
17913;SDS011;9082;50.742;8.238;2022-07-09T08:16:52;11.37;;;6.40;;
17913;SDS011;9082;50.742;8.238;2022-07-09T08:19:20;10.40;;;5.63;;
17913;SDS011;9082;50.742;8.238;2022-07-09T08:21:47;6.53;;;4.60;;
17913;SDS011;9082;50.742;8.238;2022-07-09T08:24:15;7.63;;;4.53;;
17913;SDS011;9082;50.742;8.238;2022-07-09T08:26:44;12.77;;;4.43;;
17913;SDS011;9082;50.742;8.238;2022-07-09T08:29:13;7.97;;;4.03;;
17913;SDS011;9082;50.742;8.238;2022-07-09T08:31:40;6.20;;;3.67;;
17913;SDS011;9082;50.742;8.238;2022-07-09T08:34:07;9.53;;;3.77;;
17913;SDS011;9082;50.742;8.238;2022-07-09T08:36:38;5.27;;;3.10;;
17913;SDS011;9082;50.742;8.238;2022-07-09T08:39:05;7.70;;;2.97;;
17913;SDS011;9082;50.742;8.238;2022-07-09T08:41:32;6.30;;;3.30;;
17913;SDS011;9082;50.742;8.238;2022-07-09T08:43:59;7.63;;;3.43;;
17913;SDS011;9082;50.742;8.238;2022-07-09T08:46:30;6.87;;;3.30;;
17913;SDS011;9082;50.742;8.238;2022-07-09T08:48:58;6.83;;;3.50;;
17913;SDS011;9082;50.742;8.238;2022-07-09T08:51:28;9.73;;;3.60;;
17913;SDS011;9082;50.742;8.238;2022-07-09T08:56:59;7.13;;;3.93;;
17913;SDS011;9082;50.742;8.238;2022-07-09T08:59:26;7.57;;;3.30;;
17913;SDS011;9082;50.742;8.238;2022-07-09T09:01:54;4.50;;;3.27;;
17913;SDS011;9082;50.742;8.238;2022-07-09T09:04:22;3.57;;;2.90;;
17913;SDS011;9082;50.742;8.238;2022-07-09T09:06:50;3.57;;;2.90;;
17913;SDS011;9082;50.742;8.238;2022-07-09T09:09:19;7.27;;;3.80;;
17913;SDS011;9082;50.742;8.238;2022-07-09T09:11:47;10.93;;;3.20;;
17913;SDS011;9082;50.742;8.238;2022-07-09T09:14:19;5.90;;;3.80;;
17913;SDS011;9082;50.742;8.238;2022-07-09T09:16:47;7.40;;;3.70;;
17913;SDS011;9082;50.742;8.238;2022-07-09T09:19:15;6.63;;;3.80;;
17913;SDS011;9082;50.742;8.238;2022-07-09T09:21:42;3.70;;;2.80;;
17913;SDS011;9082;50.742;8.238;2022-07-09T09:24:10;4.23;;;2.60;;
17913;SDS011;9082;50.742;8.238;2022-07-09T09:29:47;10.03;;;3.13;;
17913;SDS011;9082;50.742;8.238;2022-07-09T09:32:18;5.87;;;2.80;;
17913;SDS011;9082;50.742;8.238;2022-07-09T09:34:50;6.20;;;3.13;;
17913;SDS011;9082;50.742;8.238;2022-07-09T09:37:27;7.93;;;3.33;;
17913;SDS011;9082;50.742;8.238;2022-07-09T09:39:54;5.23;;;3.30;;
17913;SDS011;9082;50.742;8.238;2022-07-09T09:42:23;5.20;;;3.40;;
17913;SDS011;9082;50.742;8.238;2022-07-09T09:44:50;10.23;;;4.57;;
17913;SDS011;9082;50.742;8.238;2022-07-09T09:47:20;6.77;;;3.57;;
17913;SDS011;9082;50.742;8.238;2022-07-09T09:49:55;5.27;;;3.10;;
17913;SDS011;9082;50.742;8.238;2022-07-09T09:52:25;7.00;;;3.33;;
17913;SDS011;9082;50.742;8.238;2022-07-09T09:54:53;5.67;;;3.47;;
17913;SDS011;9082;50.742;8.238;2022-07-09T09:57:24;2.87;;;2.40;;
17913;SDS011;9082;50.742;8.238;2022-07-09T09:59:52;4.97;;;2.60;;
17913;SDS011;9082;50.742;8.238;2022-07-09T10:02:22;3.80;;;2.80;;
17913;SDS011;9082;50.742;8.238;2022-07-09T10:04:50;6.27;;;3.03;;
17913;SDS011;9082;50.742;8.238;2022-07-09T10:07:18;5.80;;;3.20;;
17913;SDS011;9082;50.742;8.238;2022-07-09T10:09:53;4.63;;;3.00;;
17913;SDS011;9082;50.742;8.238;2022-07-09T10:12:25;4.00;;;2.90;;
17913;SDS011;9082;50.742;8.238;2022-07-09T10:14:55;4.63;;;3.27;;
17913;SDS011;9082;50.742;8.238;2022-07-09T10:17:23;5.10;;;3.17;;
17913;SDS011;9082;50.742;8.238;2022-07-09T10:19:51;5.17;;;3.13;;
17913;SDS011;9082;50.742;8.238;2022-07-09T10:22:21;4.83;;;2.80;;
17913;SDS011;9082;50.742;8.238;2022-07-09T10:24:49;5.60;;;3.40;;
17913;SDS011;9082;50.742;8.238;2022-07-09T10:27:17;4.80;;;2.93;;
17913;SDS011;9082;50.742;8.238;2022-07-09T10:29:54;4.33;;;2.80;;
17913;SDS011;9082;50.742;8.238;2022-07-09T10:32:23;5.50;;;2.97;;
17913;SDS011;9082;50.742;8.238;2022-07-09T10:34:55;4.10;;;2.87;;
17913;SDS011;9082;50.742;8.238;2022-07-09T10:37:40;4.20;;;2.80;;
17913;SDS011;9082;50.742;8.238;2022-07-09T10:40:12;4.23;;;2.50;;
17913;SDS011;9082;50.742;8.238;2022-07-09T10:42:40;8.07;;;2.40;;
17913;SDS011;9082;50.742;8.238;2022-07-09T10:47:59;2.93;;;2.63;;
17913;SDS011;9082;50.742;8.238;2022-07-09T10:50:27;5.77;;;2.47;;
17913;SDS011;9082;50.742;8.238;2022-07-09T10:52:56;2.80;;;2.23;;
17913;SDS011;9082;50.742;8.238;2022-07-09T10:55:25;4.67;;;2.13;;
17913;SDS011;9082;50.742;8.238;2022-07-09T10:57:54;5.23;;;1.80;;
17913;SDS011;9082;50.742;8.238;2022-07-09T11:00:22;4.83;;;2.03;;
17913;SDS011;9082;50.742;8.238;2022-07-09T11:02:53;4.10;;;2.10;;
17913;SDS011;9082;50.742;8.238;2022-07-09T11:05:21;3.53;;;2.10;;
17913;SDS011;9082;50.742;8.238;2022-07-09T11:07:57;2.67;;;2.07;;
17913;SDS011;9082;50.742;8.238;2022-07-09T11:10:24;5.57;;;2.73;;
17913;SDS011;9082;50.742;8.238;2022-07-09T11:12:52;5.13;;;2.30;;
17913;SDS011;9082;50.742;8.238;2022-07-09T11:15:19;3.20;;;2.80;;
17913;SDS011;9082;50.742;8.238;2022-07-09T11:17:53;5.43;;;2.60;;
17913;SDS011;9082;50.742;8.238;2022-07-09T11:20:21;4.53;;;2.47;;
17913;SDS011;9082;50.742;8.238;2022-07-09T11:22:48;4.90;;;2.67;;
17913;SDS011;9082;50.742;8.238;2022-07-09T11:25:22;5.50;;;2.60;;
17913;SDS011;9082;50.742;8.238;2022-07-09T11:27:53;7.33;;;2.50;;
17913;SDS011;9082;50.742;8.238;2022-07-09T11:30:20;3.73;;;2.40;;
17913;SDS011;9082;50.742;8.238;2022-07-09T11:32:48;3.00;;;2.40;;
17913;SDS011;9082;50.742;8.238;2022-07-09T11:35:34;5.13;;;2.57;;
17913;SDS011;9082;50.742;8.238;2022-07-09T11:38:06;4.03;;;2.30;;
17913;SDS011;9082;50.742;8.238;2022-07-09T11:40:35;3.30;;;2.23;;
17913;SDS011;9082;50.742;8.238;2022-07-09T11:43:02;4.20;;;2.40;;
17913;SDS011;9082;50.742;8.238;2022-07-09T11:45:39;2.47;;;2.10;;
17913;SDS011;9082;50.742;8.238;2022-07-09T11:48:06;3.43;;;1.87;;
17913;SDS011;9082;50.742;8.238;2022-07-09T11:50:41;3.47;;;1.80;;
17913;SDS011;9082;50.742;8.238;2022-07-09T11:53:18;3.03;;;1.87;;
17913;SDS011;9082;50.742;8.238;2022-07-09T11:58:28;2.97;;;1.80;;
17913;SDS011;9082;50.742;8.238;2022-07-09T12:00:55;3.57;;;1.80;;
17913;SDS011;9082;50.742;8.238;2022-07-09T12:03:24;3.30;;;1.63;;
17913;SDS011;9082;50.742;8.238;2022-07-09T12:05:52;2.03;;;1.60;;
17913;SDS011;9082;50.742;8.238;2022-07-09T12:08:25;3.50;;;1.97;;
17913;SDS011;9082;50.742;8.238;2022-07-09T12:10:58;4.07;;;1.93;;
17913;SDS011;9082;50.742;8.238;2022-07-09T12:13:26;3.23;;;1.50;;
17913;SDS011;9082;50.742;8.238;2022-07-09T12:15:56;2.37;;;1.40;;
17913;SDS011;9082;50.742;8.238;2022-07-09T12:18:23;2.23;;;1.40;;
17913;SDS011;9082;50.742;8.238;2022-07-09T12:20:52;4.50;;;1.87;;
17913;SDS011;9082;50.742;8.238;2022-07-09T12:23:20;2.50;;;1.50;;
17913;SDS011;9082;50.742;8.238;2022-07-09T12:25:48;4.00;;;1.53;;
17913;SDS011;9082;50.742;8.238;2022-07-09T12:28:15;3.97;;;1.67;;
17913;SDS011;9082;50.742;8.238;2022-07-09T12:30:42;2.30;;;1.47;;
17913;SDS011;9082;50.742;8.238;2022-07-09T12:33:12;3.43;;;1.70;;
17913;SDS011;9082;50.742;8.238;2022-07-09T12:35:39;4.83;;;1.93;;
17913;SDS011;9082;50.742;8.238;2022-07-09T12:38:06;3.73;;;1.50;;
17913;SDS011;9082;50.742;8.238;2022-07-09T12:40:35;6.50;;;1.57;;
17913;SDS011;9082;50.742;8.238;2022-07-09T12:43:03;33.47;;;3.93;;
17913;SDS011;9082;50.742;8.238;2022-07-09T12:45:30;15.03;;;2.00;;
17913;SDS011;9082;50.742;8.238;2022-07-09T12:47:57;12.83;;;1.77;;
17913;SDS011;9082;50.742;8.238;2022-07-09T12:50:28;25.23;;;2.70;;
17913;SDS011;9082;50.742;8.238;2022-07-09T12:53:04;9.73;;;2.37;;
17913;SDS011;9082;50.742;8.238;2022-07-09T12:55:34;4.57;;;1.60;;
17913;SDS011;9082;50.742;8.238;2022-07-09T12:58:01;4.33;;;1.70;;
17913;SDS011;9082;50.742;8.238;2022-07-09T13:00:28;3.73;;;1.80;;
17913;SDS011;9082;50.742;8.238;2022-07-09T13:02:56;2.20;;;1.43;;
17913;SDS011;9082;50.742;8.238;2022-07-09T13:05:27;3.10;;;1.40;;
17913;SDS011;9082;50.742;8.238;2022-07-09T13:07:54;3.73;;;1.50;;
17913;SDS011;9082;50.742;8.238;2022-07-09T13:10:23;6.83;;;1.67;;
17913;SDS011;9082;50.742;8.238;2022-07-09T13:12:51;2.87;;;1.60;;
17913;SDS011;9082;50.742;8.238;2022-07-09T13:15:18;2.80;;;1.90;;
17913;SDS011;9082;50.742;8.238;2022-07-09T13:17:47;1.97;;;1.40;;
17913;SDS011;9082;50.742;8.238;2022-07-09T13:20:24;3.20;;;1.50;;
17913;SDS011;9082;50.742;8.238;2022-07-09T13:22:52;9.70;;;1.70;;
17913;SDS011;9082;50.742;8.238;2022-07-09T13:28:05;2.07;;;1.50;;
17913;SDS011;9082;50.742;8.238;2022-07-09T13:30:32;2.63;;;1.40;;
17913;SDS011;9082;50.742;8.238;2022-07-09T13:32:59;2.10;;;1.57;;
17913;SDS011;9082;50.742;8.238;2022-07-09T13:35:26;3.43;;;1.60;;
17913;SDS011;9082;50.742;8.238;2022-07-09T13:37:55;4.30;;;1.80;;
17913;SDS011;9082;50.742;8.238;2022-07-09T13:40:22;5.07;;;1.60;;
17913;SDS011;9082;50.742;8.238;2022-07-09T13:42:50;7.70;;;1.60;;
17913;SDS011;9082;50.742;8.238;2022-07-09T13:45:17;4.00;;;2.03;;
17913;SDS011;9082;50.742;8.238;2022-07-09T13:47:44;4.53;;;2.10;;
17913;SDS011;9082;50.742;8.238;2022-07-09T13:50:11;8.80;;;1.90;;
17913;SDS011;9082;50.742;8.238;2022-07-09T13:52:38;4.27;;;1.90;;
17913;SDS011;9082;50.742;8.238;2022-07-09T13:55:07;3.40;;;1.73;;
17913;SDS011;9082;50.742;8.238;2022-07-09T13:57:34;2.20;;;1.63;;
17913;SDS011;9082;50.742;8.238;2022-07-09T14:00:08;4.80;;;1.93;;
17913;SDS011;9082;50.742;8.238;2022-07-09T14:02:40;2.47;;;1.73;;
17913;SDS011;9082;50.742;8.238;2022-07-09T14:05:09;3.57;;;1.90;;
17913;SDS011;9082;50.742;8.238;2022-07-09T14:07:36;3.37;;;1.87;;
17913;SDS011;9082;50.742;8.238;2022-07-09T14:13:27;5.53;;;1.90;;
17913;SDS011;9082;50.742;8.238;2022-07-09T14:18:44;4.20;;;1.80;;
17913;SDS011;9082;50.742;8.238;2022-07-09T14:21:11;3.87;;;1.70;;
17913;SDS011;9082;50.742;8.238;2022-07-09T14:23:38;3.67;;;1.97;;
17913;SDS011;9082;50.742;8.238;2022-07-09T14:26:06;3.83;;;2.20;;
17913;SDS011;9082;50.742;8.238;2022-07-09T14:28:35;3.17;;;1.63;;
17913;SDS011;9082;50.742;8.238;2022-07-09T14:31:02;5.37;;;1.50;;
17913;SDS011;9082;50.742;8.238;2022-07-09T14:33:29;3.13;;;1.57;;
17913;SDS011;9082;50.742;8.238;2022-07-09T14:35:56;2.40;;;1.73;;
17913;SDS011;9082;50.742;8.238;2022-07-09T14:38:24;4.33;;;1.90;;
17913;SDS011;9082;50.742;8.238;2022-07-09T14:40:51;2.73;;;1.80;;
17913;SDS011;9082;50.742;8.238;2022-07-09T14:43:18;2.97;;;1.67;;
17913;SDS011;9082;50.742;8.238;2022-07-09T14:45:47;2.30;;;1.77;;
17913;SDS011;9082;50.742;8.238;2022-07-09T14:48:14;2.50;;;1.73;;
17913;SDS011;9082;50.742;8.238;2022-07-09T14:50:41;4.27;;;1.77;;
17913;SDS011;9082;50.742;8.238;2022-07-09T14:53:09;4.00;;;2.07;;
17913;SDS011;9082;50.742;8.238;2022-07-09T14:55:36;3.50;;;1.80;;
17913;SDS011;9082;50.742;8.238;2022-07-09T14:58:17;2.20;;;1.57;;
17913;SDS011;9082;50.742;8.238;2022-07-09T15:00:44;4.13;;;2.27;;
17913;SDS011;9082;50.742;8.238;2022-07-09T15:03:13;2.80;;;1.83;;
17913;SDS011;9082;50.742;8.238;2022-07-09T15:05:40;4.53;;;2.13;;
17913;SDS011;9082;50.742;8.238;2022-07-09T15:08:07;2.37;;;1.77;;
17913;SDS011;9082;50.742;8.238;2022-07-09T15:10:35;2.97;;;1.70;;
17913;SDS011;9082;50.742;8.238;2022-07-09T15:13:03;3.67;;;2.00;;
17913;SDS011;9082;50.742;8.238;2022-07-09T15:15:31;3.37;;;1.80;;
17913;SDS011;9082;50.742;8.238;2022-07-09T15:17:59;2.40;;;2.00;;
17913;SDS011;9082;50.742;8.238;2022-07-09T15:20:27;3.13;;;2.20;;
17913;SDS011;9082;50.742;8.238;2022-07-09T15:22:55;3.17;;;2.10;;
17913;SDS011;9082;50.742;8.238;2022-07-09T15:25:22;7.10;;;2.10;;
17913;SDS011;9082;50.742;8.238;2022-07-09T15:27:50;5.23;;;2.70;;
17913;SDS011;9082;50.742;8.238;2022-07-09T15:30:22;7.87;;;3.10;;
17913;SDS011;9082;50.742;8.238;2022-07-09T15:32:49;9.03;;;3.70;;